Artois, California
Current Conditions -  °F | °C
As of 5:53 PM on Thursday 18 Dec 2014 (Local Time) from KOVE Reporting Station
Overcast Overcast  
Wind Chill: 55°   Ceiling: 4900
Heat Index: 55°   Visibility: 10mi
Dew Point: 48°   Wind: 6mph
Humidity: 77%   Direction: 90°E
Pressure: 30.17"   Gusts: NA
Location:  39.62°N, 122.2°W
Report Text: KOVE 190153Z AUTO 09005KT 10SM OVC049 13/09 A3017 RMK AO2 SLP218 T01280089
Loading
Personal Weather Stations






























Interactive Weather Map New forecast layout! Learn more

10-Day Weather Forecast

Advertisements
Track Severe Weather on mobile